sensor_id;sensor_type;location;lat;lon;timestamp;P1;durP1;ratioP1;P2;durP2;ratioP2
80366;SDS011;70058;42.660;23.366;2023-06-24T00:02:12;13.63;;;10.23;;
80366;SDS011;70058;42.660;23.366;2023-06-24T00:04:38;15.50;;;9.68;;
80366;SDS011;70058;42.660;23.366;2023-06-24T00:07:03;14.15;;;9.82;;
80366;SDS011;70058;42.660;23.366;2023-06-24T00:09:29;16.02;;;9.77;;
80366;SDS011;70058;42.660;23.366;2023-06-24T00:11:55;12.77;;;9.57;;
80366;SDS011;70058;42.660;23.366;2023-06-24T00:14:22;13.43;;;9.68;;
80366;SDS011;70058;42.660;23.366;2023-06-24T00:16:50;14.20;;;10.25;;
80366;SDS011;70058;42.660;23.366;2023-06-24T00:19:26;13.63;;;9.77;;
80366;SDS011;70058;42.660;23.366;2023-06-24T00:21:52;12.88;;;9.55;;
80366;SDS011;70058;42.660;23.366;2023-06-24T00:24:21;16.05;;;10.38;;
80366;SDS011;70058;42.660;23.366;2023-06-24T00:26:51;18.70;;;9.85;;
80366;SDS011;70058;42.660;23.366;2023-06-24T00:29:18;13.48;;;9.65;;
80366;SDS011;70058;42.660;23.366;2023-06-24T00:31:43;12.93;;;10.25;;
80366;SDS011;70058;42.660;23.366;2023-06-24T00:34:09;13.88;;;9.88;;
80366;SDS011;70058;42.660;23.366;2023-06-24T00:36:35;15.02;;;10.20;;
80366;SDS011;70058;42.660;23.366;2023-06-24T00:39:01;15.73;;;9.50;;
80366;SDS011;70058;42.660;23.366;2023-06-24T00:41:28;12.18;;;9.25;;
80366;SDS011;70058;42.660;23.366;2023-06-24T00:43:58;15.57;;;10.13;;
80366;SDS011;70058;42.660;23.366;2023-06-24T00:46:24;13.88;;;10.05;;
80366;SDS011;70058;42.660;23.366;2023-06-24T00:48:59;15.98;;;10.40;;
80366;SDS011;70058;42.660;23.366;2023-06-24T00:51:28;14.50;;;10.20;;
80366;SDS011;70058;42.660;23.366;2023-06-24T00:53:58;13.38;;;9.98;;
80366;SDS011;70058;42.660;23.366;2023-06-24T00:56:30;13.80;;;10.00;;
80366;SDS011;70058;42.660;23.366;2023-06-24T00:58:58;15.10;;;10.35;;
80366;SDS011;70058;42.660;23.366;2023-06-24T01:01:27;14.07;;;9.98;;
80366;SDS011;70058;42.660;23.366;2023-06-24T01:03:57;17.00;;;9.90;;
80366;SDS011;70058;42.660;23.366;2023-06-24T01:06:23;13.20;;;9.13;;
80366;SDS011;70058;42.660;23.366;2023-06-24T01:08:48;11.80;;;8.82;;
80366;SDS011;70058;42.660;23.366;2023-06-24T01:11:16;13.02;;;9.65;;
80366;SDS011;70058;42.660;23.366;2023-06-24T01:13:42;15.23;;;9.98;;
80366;SDS011;70058;42.660;23.366;2023-06-24T01:16:09;13.73;;;10.52;;
80366;SDS011;70058;42.660;23.366;2023-06-24T01:18:42;13.45;;;10.52;;
80366;SDS011;70058;42.660;23.366;2023-06-24T01:36:35;12.80;;;10.05;;
80366;SDS011;70058;42.660;23.366;2023-06-24T01:39:03;16.33;;;11.25;;
80366;SDS011;70058;42.660;23.366;2023-06-24T01:41:34;13.05;;;10.18;;
80366;SDS011;70058;42.660;23.366;2023-06-24T01:44:05;15.30;;;11.27;;
80366;SDS011;70058;42.660;23.366;2023-06-24T01:46:35;16.40;;;11.65;;
80366;SDS011;70058;42.660;23.366;2023-06-24T01:49:02;17.60;;;12.60;;
80366;SDS011;70058;42.660;23.366;2023-06-24T01:51:32;15.98;;;13.15;;
80366;SDS011;70058;42.660;23.366;2023-06-24T01:54:02;16.40;;;13.00;;
80366;SDS011;70058;42.660;23.366;2023-06-24T01:56:31;21.88;;;13.77;;
80366;SDS011;70058;42.660;23.366;2023-06-24T01:59:00;17.10;;;12.90;;
80366;SDS011;70058;42.660;23.366;2023-06-24T02:01:29;19.13;;;13.82;;
80366;SDS011;70058;42.660;23.366;2023-06-24T02:03:57;19.15;;;13.25;;
80366;SDS011;70058;42.660;23.366;2023-06-24T02:06:25;23.25;;;13.18;;
80366;SDS011;70058;42.660;23.366;2023-06-24T02:08:53;18.77;;;13.95;;
80366;SDS011;70058;42.660;23.366;2023-06-24T02:11:21;18.02;;;13.77;;
80366;SDS011;70058;42.660;23.366;2023-06-24T02:13:48;22.75;;;13.73;;
80366;SDS011;70058;42.660;23.366;2023-06-24T02:16:16;21.55;;;14.40;;
80366;SDS011;70058;42.660;23.366;2023-06-24T02:18:43;20.05;;;13.82;;
80366;SDS011;70058;42.660;23.366;2023-06-24T02:21:10;23.83;;;13.77;;
80366;SDS011;70058;42.660;23.366;2023-06-24T02:23:37;19.15;;;13.30;;
80366;SDS011;70058;42.660;23.366;2023-06-24T02:26:03;20.60;;;14.13;;
80366;SDS011;70058;42.660;23.366;2023-06-24T02:28:31;18.38;;;13.70;;
80366;SDS011;70058;42.660;23.366;2023-06-24T02:30:58;18.10;;;14.07;;
80366;SDS011;70058;42.660;23.366;2023-06-24T02:33:24;29.35;;;15.05;;
80366;SDS011;70058;42.660;23.366;2023-06-24T02:35:51;22.60;;;14.52;;
80366;SDS011;70058;42.660;23.366;2023-06-24T02:38:17;20.20;;;13.93;;
80366;SDS011;70058;42.660;23.366;2023-06-24T02:40:44;19.02;;;15.05;;
80366;SDS011;70058;42.660;23.366;2023-06-24T02:43:10;22.20;;;14.82;;
80366;SDS011;70058;42.660;23.366;2023-06-24T02:45:36;23.02;;;15.35;;
80366;SDS011;70058;42.660;23.366;2023-06-24T02:48:03;21.63;;;15.23;;
80366;SDS011;70058;42.660;23.366;2023-06-24T02:50:31;19.25;;;14.20;;
80366;SDS011;70058;42.660;23.366;2023-06-24T02:52:58;24.55;;;15.23;;
80366;SDS011;70058;42.660;23.366;2023-06-24T02:55:24;20.63;;;15.15;;
80366;SDS011;70058;42.660;23.366;2023-06-24T02:57:51;20.75;;;15.07;;
80366;SDS011;70058;42.660;23.366;2023-06-24T03:00:18;22.23;;;15.05;;
80366;SDS011;70058;42.660;23.366;2023-06-24T03:02:45;20.08;;;14.50;;
80366;SDS011;70058;42.660;23.366;2023-06-24T03:05:13;18.95;;;14.88;;
80366;SDS011;70058;42.660;23.366;2023-06-24T03:07:40;21.90;;;16.42;;
80366;SDS011;70058;42.660;23.366;2023-06-24T03:10:07;21.70;;;14.43;;
80366;SDS011;70058;42.660;23.366;2023-06-24T03:12:33;23.08;;;14.77;;
80366;SDS011;70058;42.660;23.366;2023-06-24T03:14:58;21.05;;;15.48;;
80366;SDS011;70058;42.660;23.366;2023-06-24T03:17:25;20.70;;;15.65;;
80366;SDS011;70058;42.660;23.366;2023-06-24T03:19:51;19.83;;;15.05;;
80366;SDS011;70058;42.660;23.366;2023-06-24T03:22:17;21.80;;;15.48;;
80366;SDS011;70058;42.660;23.366;2023-06-24T03:24:43;24.75;;;15.18;;
80366;SDS011;70058;42.660;23.366;2023-06-24T03:27:09;22.92;;;15.50;;
80366;SDS011;70058;42.660;23.366;2023-06-24T03:29:35;18.55;;;14.48;;
80366;SDS011;70058;42.660;23.366;2023-06-24T03:32:00;18.27;;;15.18;;
80366;SDS011;70058;42.660;23.366;2023-06-24T03:34:26;25.17;;;14.80;;
80366;SDS011;70058;42.660;23.366;2023-06-24T03:36:55;19.45;;;14.43;;
80366;SDS011;70058;42.660;23.366;2023-06-24T03:39:20;23.45;;;15.13;;
80366;SDS011;70058;42.660;23.366;2023-06-24T03:41:46;20.73;;;14.35;;
80366;SDS011;70058;42.660;23.366;2023-06-24T03:44:12;18.73;;;13.90;;
80366;SDS011;70058;42.660;23.366;2023-06-24T03:46:38;20.55;;;15.07;;
80366;SDS011;70058;42.660;23.366;2023-06-24T03:49:04;20.23;;;15.00;;
80366;SDS011;70058;42.660;23.366;2023-06-24T03:51:29;21.08;;;14.90;;
80366;SDS011;70058;42.660;23.366;2023-06-24T03:53:56;21.83;;;14.82;;
80366;SDS011;70058;42.660;23.366;2023-06-24T03:56:21;18.85;;;14.55;;
80366;SDS011;70058;42.660;23.366;2023-06-24T03:58:47;22.27;;;14.85;;
80366;SDS011;70058;42.660;23.366;2023-06-24T04:01:13;18.75;;;15.60;;
80366;SDS011;70058;42.660;23.366;2023-06-24T04:03:38;19.65;;;14.27;;
80366;SDS011;70058;42.660;23.366;2023-06-24T04:06:04;18.73;;;14.05;;
80366;SDS011;70058;42.660;23.366;2023-06-24T04:08:30;18.15;;;13.55;;
80366;SDS011;70058;42.660;23.366;2023-06-24T04:10:56;18.02;;;14.82;;
80366;SDS011;70058;42.660;23.366;2023-06-24T04:13:24;18.58;;;14.07;;
80366;SDS011;70058;42.660;23.366;2023-06-24T04:15:50;19.90;;;13.48;;
80366;SDS011;70058;42.660;23.366;2023-06-24T04:18:17;23.33;;;14.52;;
80366;SDS011;70058;42.660;23.366;2023-06-24T04:20:44;18.58;;;14.15;;
80366;SDS011;70058;42.660;23.366;2023-06-24T04:23:09;21.98;;;13.98;;
80366;SDS011;70058;42.660;23.366;2023-06-24T04:25:36;21.67;;;13.75;;
80366;SDS011;70058;42.660;23.366;2023-06-24T04:28:02;16.65;;;13.00;;
80366;SDS011;70058;42.660;23.366;2023-06-24T04:30:29;16.75;;;13.27;;
80366;SDS011;70058;42.660;23.366;2023-06-24T04:32:55;20.30;;;12.93;;
80366;SDS011;70058;42.660;23.366;2023-06-24T04:35:21;16.88;;;13.82;;
80366;SDS011;70058;42.660;23.366;2023-06-24T04:37:47;17.17;;;13.45;;
80366;SDS011;70058;42.660;23.366;2023-06-24T04:40:15;16.17;;;12.20;;
80366;SDS011;70058;42.660;23.366;2023-06-24T04:42:42;17.13;;;12.88;;
80366;SDS011;70058;42.660;23.366;2023-06-24T04:45:08;16.13;;;12.13;;
80366;SDS011;70058;42.660;23.366;2023-06-24T04:47:34;22.38;;;13.00;;
80366;SDS011;70058;42.660;23.366;2023-06-24T04:49:59;17.70;;;12.82;;
80366;SDS011;70058;42.660;23.366;2023-06-24T04:52:25;18.38;;;12.88;;
80366;SDS011;70058;42.660;23.366;2023-06-24T04:54:50;19.08;;;12.88;;
80366;SDS011;70058;42.660;23.366;2023-06-24T04:57:26;15.10;;;12.40;;
80366;SDS011;70058;42.660;23.366;2023-06-24T04:59:56;17.83;;;13.57;;
80366;SDS011;70058;42.660;23.366;2023-06-24T05:02:22;17.83;;;13.25;;
80366;SDS011;70058;42.660;23.366;2023-06-24T05:04:48;18.45;;;13.60;;
80366;SDS011;70058;42.660;23.366;2023-06-24T05:07:14;17.88;;;12.52;;
80366;SDS011;70058;42.660;23.366;2023-06-24T05:09:40;15.98;;;12.18;;
80366;SDS011;70058;42.660;23.366;2023-06-24T05:12:06;16.60;;;13.25;;
80366;SDS011;70058;42.660;23.366;2023-06-24T05:14:36;18.50;;;13.68;;
80366;SDS011;70058;42.660;23.366;2023-06-24T05:17:02;21.33;;;14.25;;
80366;SDS011;70058;42.660;23.366;2023-06-24T05:19:28;16.02;;;13.02;;
80366;SDS011;70058;42.660;23.366;2023-06-24T05:21:54;16.60;;;13.35;;
80366;SDS011;70058;42.660;23.366;2023-06-24T05:24:20;19.77;;;13.57;;
80366;SDS011;70058;42.660;23.366;2023-06-24T05:26:48;16.40;;;13.35;;
80366;SDS011;70058;42.660;23.366;2023-06-24T05:29:14;19.70;;;12.50;;
80366;SDS011;70058;42.660;23.366;2023-06-24T05:31:40;16.08;;;12.88;;
80366;SDS011;70058;42.660;23.366;2023-06-24T05:34:06;21.63;;;12.77;;
80366;SDS011;70058;42.660;23.366;2023-06-24T05:36:32;18.83;;;13.18;;
80366;SDS011;70058;42.660;23.366;2023-06-24T05:38:58;18.38;;;12.93;;
80366;SDS011;70058;42.660;23.366;2023-06-24T05:41:24;19.08;;;12.90;;
80366;SDS011;70058;42.660;23.366;2023-06-24T05:43:59;20.17;;;12.82;;
80366;SDS011;70058;42.660;23.366;2023-06-24T05:46:30;17.27;;;12.15;;
80366;SDS011;70058;42.660;23.366;2023-06-24T05:48:56;19.35;;;11.55;;
80366;SDS011;70058;42.660;23.366;2023-06-24T05:51:21;15.25;;;12.10;;
80366;SDS011;70058;42.660;23.366;2023-06-24T05:53:47;17.20;;;11.50;;
80366;SDS011;70058;42.660;23.366;2023-06-24T05:56:13;26.45;;;11.57;;
80366;SDS011;70058;42.660;23.366;2023-06-24T05:58:38;18.77;;;11.27;;
80366;SDS011;70058;42.660;23.366;2023-06-24T06:01:04;21.30;;;10.90;;
80366;SDS011;70058;42.660;23.366;2023-06-24T06:03:30;12.80;;;10.50;;
80366;SDS011;70058;42.660;23.366;2023-06-24T06:05:56;14.63;;;10.68;;
80366;SDS011;70058;42.660;23.366;2023-06-24T06:08:22;16.67;;;10.40;;
80366;SDS011;70058;42.660;23.366;2023-06-24T06:10:47;13.48;;;9.32;;
80366;SDS011;70058;42.660;23.366;2023-06-24T06:13:13;13.68;;;10.07;;
80366;SDS011;70058;42.660;23.366;2023-06-24T06:15:39;13.00;;;9.90;;
80366;SDS011;70058;42.660;23.366;2023-06-24T06:18:04;14.50;;;9.70;;
80366;SDS011;70058;42.660;23.366;2023-06-24T06:20:30;12.73;;;9.68;;
80366;SDS011;70058;42.660;23.366;2023-06-24T06:22:55;11.25;;;9.10;;
80366;SDS011;70058;42.660;23.366;2023-06-24T06:25:21;16.60;;;10.05;;
80366;SDS011;70058;42.660;23.366;2023-06-24T06:27:47;15.60;;;9.80;;
80366;SDS011;70058;42.660;23.366;2023-06-24T06:30:13;16.00;;;10.23;;
80366;SDS011;70058;42.660;23.366;2023-06-24T06:32:39;11.63;;;9.68;;
80366;SDS011;70058;42.660;23.366;2023-06-24T06:35:04;13.05;;;8.82;;
80366;SDS011;70058;42.660;23.366;2023-06-24T06:37:30;16.48;;;10.25;;
80366;SDS011;70058;42.660;23.366;2023-06-24T06:39:56;9.38;;;7.82;;
80366;SDS011;70058;42.660;23.366;2023-06-24T06:42:22;12.18;;;7.88;;
80366;SDS011;70058;42.660;23.366;2023-06-24T06:44:48;10.40;;;7.80;;
80366;SDS011;70058;42.660;23.366;2023-06-24T06:47:13;10.52;;;7.82;;
80366;SDS011;70058;42.660;23.366;2023-06-24T06:49:39;10.40;;;7.95;;
80366;SDS011;70058;42.660;23.366;2023-06-24T06:52:05;11.77;;;7.30;;
80366;SDS011;70058;42.660;23.366;2023-06-24T06:54:31;10.20;;;7.30;;
80366;SDS011;70058;42.660;23.366;2023-06-24T06:57:00;13.50;;;7.32;;
80366;SDS011;70058;42.660;23.366;2023-06-24T06:59:26;11.50;;;7.90;;
80366;SDS011;70058;42.660;23.366;2023-06-24T07:01:52;9.68;;;7.85;;
80366;SDS011;70058;42.660;23.366;2023-06-24T07:04:18;11.95;;;7.15;;
80366;SDS011;70058;42.660;23.366;2023-06-24T07:06:44;11.25;;;6.85;;
80366;SDS011;70058;42.660;23.366;2023-06-24T07:09:10;10.70;;;7.72;;
80366;SDS011;70058;42.660;23.366;2023-06-24T07:11:35;9.63;;;6.72;;
80366;SDS011;70058;42.660;23.366;2023-06-24T07:14:01;12.40;;;7.57;;
80366;SDS011;70058;42.660;23.366;2023-06-24T07:16:27;11.52;;;7.28;;
80366;SDS011;70058;42.660;23.366;2023-06-24T07:18:52;10.15;;;7.07;;
80366;SDS011;70058;42.660;23.366;2023-06-24T07:21:18;11.15;;;7.25;;
80366;SDS011;70058;42.660;23.366;2023-06-24T07:23:43;8.43;;;6.45;;
80366;SDS011;70058;42.660;23.366;2023-06-24T07:26:09;8.75;;;7.15;;
80366;SDS011;70058;42.660;23.366;2023-06-24T07:28:35;12.38;;;7.22;;
80366;SDS011;70058;42.660;23.366;2023-06-24T07:31:01;10.45;;;7.47;;
80366;SDS011;70058;42.660;23.366;2023-06-24T07:33:26;8.88;;;6.43;;
80366;SDS011;70058;42.660;23.366;2023-06-24T07:35:53;8.68;;;6.40;;
80366;SDS011;70058;42.660;23.366;2023-06-24T07:38:19;9.20;;;6.60;;
80366;SDS011;70058;42.660;23.366;2023-06-24T07:40:44;9.73;;;7.25;;
80366;SDS011;70058;42.660;23.366;2023-06-24T07:43:10;9.98;;;7.03;;
80366;SDS011;70058;42.660;23.366;2023-06-24T07:45:35;10.27;;;7.00;;
80366;SDS011;70058;42.660;23.366;2023-06-24T07:48:02;13.00;;;7.22;;
80366;SDS011;70058;42.660;23.366;2023-06-24T07:50:30;10.68;;;7.32;;
80366;SDS011;70058;42.660;23.366;2023-06-24T07:52:56;9.38;;;6.60;;
80366;SDS011;70058;42.660;23.366;2023-06-24T07:55:22;10.75;;;6.90;;
80366;SDS011;70058;42.660;23.366;2023-06-24T07:57:47;9.15;;;6.38;;
80366;SDS011;70058;42.660;23.366;2023-06-24T08:00:14;9.52;;;6.57;;
80366;SDS011;70058;42.660;23.366;2023-06-24T08:02:40;8.45;;;7.40;;
80366;SDS011;70058;42.660;23.366;2023-06-24T08:05:06;12.75;;;7.38;;
80366;SDS011;70058;42.660;23.366;2023-06-24T08:07:34;11.63;;;7.60;;
80366;SDS011;70058;42.660;23.366;2023-06-24T08:10:00;8.85;;;7.18;;
80366;SDS011;70058;42.660;23.366;2023-06-24T08:12:26;9.48;;;7.50;;
80366;SDS011;70058;42.660;23.366;2023-06-24T08:14:51;9.07;;;7.40;;
80366;SDS011;70058;42.660;23.366;2023-06-24T08:17:17;7.93;;;7.07;;
80366;SDS011;70058;42.660;23.366;2023-06-24T08:19:43;10.18;;;7.10;;
80366;SDS011;70058;42.660;23.366;2023-06-24T08:22:08;9.15;;;6.70;;
80366;SDS011;70058;42.660;23.366;2023-06-24T08:24:34;10.52;;;7.15;;
80366;SDS011;70058;42.660;23.366;2023-06-24T08:27:00;8.35;;;7.18;;
80366;SDS011;70058;42.660;23.366;2023-06-24T08:29:25;10.02;;;7.07;;
80366;SDS011;70058;42.660;23.366;2023-06-24T08:31:51;9.88;;;6.85;;
80366;SDS011;70058;42.660;23.366;2023-06-24T08:34:16;12.23;;;7.35;;
80366;SDS011;70058;42.660;23.366;2023-06-24T08:36:42;9.70;;;7.35;;
80366;SDS011;70058;42.660;23.366;2023-06-24T08:39:08;9.43;;;7.55;;
80366;SDS011;70058;42.660;23.366;2023-06-24T08:41:33;10.20;;;7.47;;
80366;SDS011;70058;42.660;23.366;2023-06-24T08:43:59;10.80;;;7.88;;
80366;SDS011;70058;42.660;23.366;2023-06-24T08:46:25;14.40;;;6.60;;
80366;SDS011;70058;42.660;23.366;2023-06-24T08:49:00;10.23;;;7.03;;
80366;SDS011;70058;42.660;23.366;2023-06-24T08:51:29;9.07;;;6.95;;
80366;SDS011;70058;42.660;23.366;2023-06-24T08:53:59;10.15;;;6.72;;
80366;SDS011;70058;42.660;23.366;2023-06-24T08:56:25;8.73;;;6.97;;
80366;SDS011;70058;42.660;23.366;2023-06-24T08:58:51;9.15;;;6.88;;
80366;SDS011;70058;42.660;23.366;2023-06-24T09:01:17;10.30;;;6.85;;
80366;SDS011;70058;42.660;23.366;2023-06-24T09:03:43;8.25;;;6.28;;
80366;SDS011;70058;42.660;23.366;2023-06-24T09:06:08;11.35;;;7.45;;
80366;SDS011;70058;42.660;23.366;2023-06-24T09:08:34;7.05;;;6.20;;
80366;SDS011;70058;42.660;23.366;2023-06-24T09:11:00;11.13;;;6.28;;
80366;SDS011;70058;42.660;23.366;2023-06-24T09:13:35;7.53;;;5.78;;
80366;SDS011;70058;42.660;23.366;2023-06-24T09:16:11;9.00;;;5.95;;
80366;SDS011;70058;42.660;23.366;2023-06-24T09:18:39;8.30;;;6.32;;
80366;SDS011;70058;42.660;23.366;2023-06-24T09:21:04;11.85;;;6.43;;
80366;SDS011;70058;42.660;23.366;2023-06-24T09:23:33;9.50;;;6.47;;
80366;SDS011;70058;42.660;23.366;2023-06-24T09:26:01;8.10;;;7.05;;
80366;SDS011;70058;42.660;23.366;2023-06-24T09:28:27;11.60;;;6.10;;
80366;SDS011;70058;42.660;23.366;2023-06-24T09:31:09;9.70;;;6.43;;
80366;SDS011;70058;42.660;23.366;2023-06-24T09:33:34;9.23;;;5.97;;
80366;SDS011;70058;42.660;23.366;2023-06-24T09:36:03;10.23;;;5.90;;
80366;SDS011;70058;42.660;23.366;2023-06-24T09:38:34;10.05;;;5.97;;
80366;SDS011;70058;42.660;23.366;2023-06-24T09:43:36;8.43;;;5.82;;
80366;SDS011;70058;42.660;23.366;2023-06-24T09:46:02;9.32;;;5.28;;
80366;SDS011;70058;42.660;23.366;2023-06-24T09:48:29;7.85;;;5.63;;
80366;SDS011;70058;42.660;23.366;2023-06-24T09:50:56;9.48;;;6.50;;
80366;SDS011;70058;42.660;23.366;2023-06-24T09:53:31;10.27;;;6.30;;
80366;SDS011;70058;42.660;23.366;2023-06-24T09:55:59;9.23;;;5.78;;
80366;SDS011;70058;42.660;23.366;2023-06-24T09:58:26;7.70;;;5.68;;
80366;SDS011;70058;42.660;23.366;2023-06-24T10:00:56;12.27;;;6.15;;
80366;SDS011;70058;42.660;23.366;2023-06-24T10:03:26;10.15;;;6.07;;
80366;SDS011;70058;42.660;23.366;2023-06-24T10:05:52;11.70;;;6.88;;
80366;SDS011;70058;42.660;23.366;2023-06-24T10:08:18;8.15;;;5.30;;
80366;SDS011;70058;42.660;23.366;2023-06-24T10:10:45;8.30;;;5.53;;
80366;SDS011;70058;42.660;23.366;2023-06-24T10:13:11;12.07;;;5.45;;
80366;SDS011;70058;42.660;23.366;2023-06-24T10:15:37;7.38;;;5.30;;
80366;SDS011;70058;42.660;23.366;2023-06-24T10:18:03;7.05;;;5.15;;
80366;SDS011;70058;42.660;23.366;2023-06-24T10:20:48;8.25;;;5.65;;
80366;SDS011;70058;42.660;23.366;2023-06-24T10:23:14;10.75;;;6.10;;
80366;SDS011;70058;42.660;23.366;2023-06-24T10:25:40;9.23;;;6.22;;
80366;SDS011;70058;42.660;23.366;2023-06-24T10:28:05;12.13;;;6.38;;
80366;SDS011;70058;42.660;23.366;2023-06-24T10:30:31;10.15;;;6.45;;
80366;SDS011;70058;42.660;23.366;2023-06-24T10:32:58;8.50;;;6.50;;
80366;SDS011;70058;42.660;23.366;2023-06-24T10:35:27;8.10;;;6.80;;
80366;SDS011;70058;42.660;23.366;2023-06-24T10:37:57;10.10;;;7.15;;
80366;SDS011;70058;42.660;23.366;2023-06-24T10:45:51;11.70;;;7.30;;
80366;SDS011;70058;42.660;23.366;2023-06-24T10:48:18;11.43;;;7.63;;
80366;SDS011;70058;42.660;23.366;2023-06-24T10:50:47;12.18;;;8.32;;
80366;SDS011;70058;42.660;23.366;2023-06-24T10:53:16;10.82;;;7.78;;
80366;SDS011;70058;42.660;23.366;2023-06-24T10:55:45;11.68;;;8.52;;
80366;SDS011;70058;42.660;23.366;2023-06-24T10:58:12;12.32;;;8.18;;
80366;SDS011;70058;42.660;23.366;2023-06-24T11:00:40;9.48;;;7.50;;
80366;SDS011;70058;42.660;23.366;2023-06-24T11:03:13;11.68;;;7.88;;
80366;SDS011;70058;42.660;23.366;2023-06-24T11:05:41;11.05;;;7.82;;
80366;SDS011;70058;42.660;23.366;2023-06-24T11:08:08;10.38;;;7.57;;
80366;SDS011;70058;42.660;23.366;2023-06-24T11:10:41;10.35;;;8.25;;
80366;SDS011;70058;42.660;23.366;2023-06-24T11:13:11;11.10;;;6.95;;
80366;SDS011;70058;42.660;23.366;2023-06-24T11:15:38;10.95;;;7.15;;
80366;SDS011;70058;42.660;23.366;2023-06-24T11:18:05;9.18;;;6.40;;
80366;SDS011;70058;42.660;23.366;2023-06-24T11:20:34;10.60;;;6.50;;
80366;SDS011;70058;42.660;23.366;2023-06-24T11:23:02;12.05;;;7.40;;
80366;SDS011;70058;42.660;23.366;2023-06-24T11:25:31;12.45;;;6.32;;
80366;SDS011;70058;42.660;23.366;2023-06-24T11:27:57;10.13;;;5.95;;
80366;SDS011;70058;42.660;23.366;2023-06-24T11:30:22;8.70;;;5.60;;
80366;SDS011;70058;42.660;23.366;2023-06-24T11:32:48;10.32;;;5.80;;
80366;SDS011;70058;42.660;23.366;2023-06-24T11:35:15;12.93;;;6.88;;
80366;SDS011;70058;42.660;23.366;2023-06-24T11:37:41;8.98;;;6.60;;
80366;SDS011;70058;42.660;23.366;2023-06-24T11:40:09;11.15;;;6.25;;
80366;SDS011;70058;42.660;23.366;2023-06-24T11:42:36;11.40;;;6.78;;
80366;SDS011;70058;42.660;23.366;2023-06-24T11:45:03;11.20;;;5.95;;
80366;SDS011;70058;42.660;23.366;2023-06-24T11:47:35;9.10;;;5.75;;
80366;SDS011;70058;42.660;23.366;2023-06-24T11:50:02;8.93;;;6.03;;
80366;SDS011;70058;42.660;23.366;2023-06-24T11:52:39;7.10;;;5.30;;
80366;SDS011;70058;42.660;23.366;2023-06-24T12:00:29;8.80;;;5.25;;
80366;SDS011;70058;42.660;23.366;2023-06-24T12:03:10;10.52;;;6.18;;
80366;SDS011;70058;42.660;23.366;2023-06-24T12:05:36;11.27;;;6.00;;
80366;SDS011;70058;42.660;23.366;2023-06-24T12:08:05;9.00;;;5.88;;
80366;SDS011;70058;42.660;23.366;2023-06-24T12:10:32;10.27;;;5.85;;
80366;SDS011;70058;42.660;23.366;2023-06-24T12:12:59;8.68;;;5.85;;
80366;SDS011;70058;42.660;23.366;2023-06-24T12:15:26;8.10;;;6.05;;
80366;SDS011;70058;42.660;23.366;2023-06-24T12:17:52;9.10;;;5.30;;
80366;SDS011;70058;42.660;23.366;2023-06-24T12:20:18;11.60;;;6.72;;
80366;SDS011;70058;42.660;23.366;2023-06-24T12:22:44;10.02;;;6.60;;
80366;SDS011;70058;42.660;23.366;2023-06-24T12:25:11;10.23;;;6.53;;
80366;SDS011;70058;42.660;23.366;2023-06-24T12:27:37;8.82;;;6.10;;
80366;SDS011;70058;42.660;23.366;2023-06-24T12:30:05;13.45;;;6.38;;
80366;SDS011;70058;42.660;23.366;2023-06-24T12:32:31;9.57;;;6.43;;
80366;SDS011;70058;42.660;23.366;2023-06-24T12:34:57;8.38;;;6.45;;
80366;SDS011;70058;42.660;23.366;2023-06-24T12:37:23;10.68;;;6.63;;
80366;SDS011;70058;42.660;23.366;2023-06-24T12:39:48;11.20;;;6.45;;
80366;SDS011;70058;42.660;23.366;2023-06-24T12:42:16;9.55;;;7.13;;
80366;SDS011;70058;42.660;23.366;2023-06-24T12:44:42;10.05;;;6.72;;
80366;SDS011;70058;42.660;23.366;2023-06-24T12:47:07;9.18;;;6.50;;
80366;SDS011;70058;42.660;23.366;2023-06-24T12:49:33;14.07;;;6.88;;
80366;SDS011;70058;42.660;23.366;2023-06-24T12:51:59;12.98;;;6.70;;
80366;SDS011;70058;42.660;23.366;2023-06-24T12:54:26;11.30;;;7.20;;
80366;SDS011;70058;42.660;23.366;2023-06-24T12:56:51;11.05;;;6.55;;
80366;SDS011;70058;42.660;23.366;2023-06-24T12:59:17;9.43;;;6.22;;
80366;SDS011;70058;42.660;23.366;2023-06-24T13:01:42;15.25;;;6.82;;
80366;SDS011;70058;42.660;23.366;2023-06-24T13:04:10;9.65;;;6.43;;
80366;SDS011;70058;42.660;23.366;2023-06-24T13:06:36;11.20;;;6.78;;
80366;SDS011;70058;42.660;23.366;2023-06-24T13:09:01;13.63;;;6.93;;
80366;SDS011;70058;42.660;23.366;2023-06-24T13:11:28;11.32;;;7.05;;
80366;SDS011;70058;42.660;23.366;2023-06-24T13:13:54;11.20;;;6.65;;
80366;SDS011;70058;42.660;23.366;2023-06-24T13:16:20;9.68;;;6.35;;
80366;SDS011;70058;42.660;23.366;2023-06-24T13:18:45;10.88;;;6.93;;
80366;SDS011;70058;42.660;23.366;2023-06-24T13:21:11;9.98;;;7.75;;
80366;SDS011;70058;42.660;23.366;2023-06-24T13:23:37;13.75;;;8.52;;
80366;SDS011;70058;42.660;23.366;2023-06-24T13:26:04;23.73;;;8.02;;
80366;SDS011;70058;42.660;23.366;2023-06-24T13:28:31;23.23;;;7.60;;
80366;SDS011;70058;42.660;23.366;2023-06-24T13:30:57;17.83;;;7.93;;
80366;SDS011;70058;42.660;23.366;2023-06-24T13:33:23;27.23;;;8.25;;
80366;SDS011;70058;42.660;23.366;2023-06-24T13:35:49;22.42;;;7.53;;
80366;SDS011;70058;42.660;23.366;2023-06-24T13:38:16;21.15;;;6.93;;
80366;SDS011;70058;42.660;23.366;2023-06-24T13:40:42;19.35;;;6.00;;
80366;SDS011;70058;42.660;23.366;2023-06-24T13:43:07;23.00;;;6.28;;
80366;SDS011;70058;42.660;23.366;2023-06-24T13:45:33;39.28;;;9.00;;
80366;SDS011;70058;42.660;23.366;2023-06-24T13:47:59;38.58;;;9.60;;
80366;SDS011;70058;42.660;23.366;2023-06-24T13:50:24;33.88;;;9.82;;
80366;SDS011;70058;42.660;23.366;2023-06-24T13:52:50;31.73;;;8.43;;
80366;SDS011;70058;42.660;23.366;2023-06-24T13:55:16;21.45;;;6.72;;
80366;SDS011;70058;42.660;23.366;2023-06-24T13:57:41;16.30;;;6.28;;
80366;SDS011;70058;42.660;23.366;2023-06-24T14:00:07;14.65;;;5.47;;
80366;SDS011;70058;42.660;23.366;2023-06-24T14:02:34;14.00;;;5.72;;
80366;SDS011;70058;42.660;23.366;2023-06-24T14:05:00;13.95;;;5.78;;
80366;SDS011;70058;42.660;23.366;2023-06-24T14:07:25;9.98;;;4.85;;
80366;SDS011;70058;42.660;23.366;2023-06-24T14:09:51;11.43;;;5.32;;
80366;SDS011;70058;42.660;23.366;2023-06-24T14:12:17;18.40;;;5.47;;
80366;SDS011;70058;42.660;23.366;2023-06-24T14:14:42;16.10;;;5.57;;
80366;SDS011;70058;42.660;23.366;2023-06-24T14:17:08;18.23;;;5.72;;
80366;SDS011;70058;42.660;23.366;2023-06-24T14:19:36;24.45;;;5.97;;
80366;SDS011;70058;42.660;23.366;2023-06-24T14:22:02;17.80;;;5.78;;
80366;SDS011;70058;42.660;23.366;2023-06-24T14:24:28;16.33;;;5.35;;
80366;SDS011;70058;42.660;23.366;2023-06-24T14:26:54;11.75;;;5.28;;
80366;SDS011;70058;42.660;23.366;2023-06-24T14:29:20;14.63;;;5.30;;
80366;SDS011;70058;42.660;23.366;2023-06-24T14:31:45;14.00;;;5.32;;
80366;SDS011;70058;42.660;23.366;2023-06-24T14:34:11;16.98;;;5.68;;
80366;SDS011;70058;42.660;23.366;2023-06-24T14:36:37;14.40;;;5.30;;
80366;SDS011;70058;42.660;23.366;2023-06-24T14:39:03;16.02;;;5.90;;
80366;SDS011;70058;42.660;23.366;2023-06-24T14:41:29;13.70;;;5.55;;
80366;SDS011;70058;42.660;23.366;2023-06-24T14:43:54;14.70;;;5.07;;
80366;SDS011;70058;42.660;23.366;2023-06-24T14:46:20;16.15;;;5.38;;